Time;durP1;ratioP1;P1;durP2;ratioP2;P2;SDS_P1;SDS_P2;PMS_P1;PMS_P2;Temp;Humidity;BMP_temperature;BMP_pressure;BME280_temperature;BME280_humidity;BME280_pressure;Samples;Min_cycle;Max_cycle;Signal;HPM_P1;HPM_P2
2021/01/17 00:01:05;;;;;;;35.45;15.15;;;0.90;99.90;;;;;;5041283;28;20493;-62
2021/01/17 00:03:31;;;;;;;38.20;14.50;;;0.90;99.90;;;;;;5045298;28;20689;-62
2021/01/17 00:05:56;;;;;;;35.50;13.40;;;0.90;99.90;;;;;;5042263;28;20069;-61
2021/01/17 00:08:22;;;;;;;43.22;15.27;;;0.90;99.90;;;;;;5044515;28;20029;-64
2021/01/17 00:10:47;;;;;;;37.92;14.55;;;0.90;99.90;;;;;;5044265;28;20056;-62
2021/01/17 00:13:14;;;;;;;35.90;15.05;;;0.90;99.90;;;;;;5043984;28;20456;-62
2021/01/17 00:15:40;;;;;;;36.45;14.18;;;0.90;99.90;;;;;;5074997;23;20052;-61
2021/01/17 00:18:06;;;;;;;42.17;14.00;;;0.90;99.90;;;;;;5062799;28;20082;-59
2021/01/17 00:20:32;;;;;;;38.30;15.20;;;0.90;99.90;;;;;;5064866;28;20032;-59
2021/01/17 00:23:03;;;;;;;35.42;14.13;;;0.90;99.90;;;;;;5067615;28;20504;-60
2021/01/17 00:25:29;;;;;;;32.58;12.95;;;0.90;99.90;;;;;;5063613;28;20037;-59
2021/01/17 00:27:56;;;;;;;40.92;14.75;;;0.90;99.90;;;;;;5063676;28;20045;-60
2021/01/17 00:30:25;;;;;;;37.75;15.30;;;0.90;99.90;;;;;;5062219;28;20400;-60
2021/01/17 00:32:53;;;;;;;42.22;14.38;;;0.80;99.90;;;;;;5061188;28;20385;-59
2021/01/17 00:35:19;;;;;;;37.97;14.38;;;0.80;99.90;;;;;;5063125;28;20044;-59
2021/01/17 00:37:45;;;;;;;38.80;14.85;;;0.90;99.90;;;;;;5058915;28;20036;-61
2021/01/17 00:40:11;;;;;;;43.03;14.85;;;0.90;99.90;;;;;;5059048;28;20393;-59
2021/01/17 00:42:43;;;;;;;47.90;16.10;;;0.90;99.90;;;;;;5058245;28;20025;-61
2021/01/17 00:45:09;;;;;;;41.53;14.88;;;0.90;99.90;;;;;;5063181;28;20456;-59
2021/01/17 00:47:35;;;;;;;42.40;15.35;;;0.90;99.90;;;;;;5061062;28;20029;-61
2021/01/17 00:50:00;;;;;;;43.50;16.50;;;0.90;99.90;;;;;;5061198;28;20029;-61
2021/01/17 00:52:26;;;;;;;47.10;16.13;;;0.90;99.90;;;;;;5061470;28;20056;-64
2021/01/17 00:54:51;;;;;;;53.50;17.88;;;0.90;99.90;;;;;;5061867;28;20522;-60
2021/01/17 00:57:17;;;;;;;43.40;15.55;;;0.90;99.90;;;;;;5061442;28;20421;-60
2021/01/17 00:59:43;;;;;;;41.85;14.68;;;0.90;99.90;;;;;;5062507;28;20480;-62
2021/01/17 01:02:08;;;;;;;46.03;15.93;;;0.90;99.90;;;;;;5060186;28;20029;-62
2021/01/17 01:04:34;;;;;;;41.35;16.38;;;0.90;99.90;;;;;;5062473;28;20043;-60
2021/01/17 01:07:00;;;;;;;46.40;17.25;;;0.90;99.90;;;;;;5061528;28;20326;-60
2021/01/17 01:09:27;;;;;;;44.85;15.25;;;0.90;99.90;;;;;;5059652;28;20065;-59
2021/01/17 01:11:52;;;;;;;45.30;15.30;;;0.90;99.90;;;;;;5061280;28;20089;-61
2021/01/17 01:14:18;;;;;;;40.08;14.63;;;0.90;99.90;;;;;;5060523;28;20041;-63
2021/01/17 01:16:53;;;;;;;53.67;17.00;;;0.90;99.90;;;;;;5058530;28;20093;-60
2021/01/17 01:19:20;;;;;;;48.72;16.48;;;0.90;99.90;;;;;;5058918;28;20032;-61
2021/01/17 01:21:45;;;;;;;43.30;16.90;;;0.90;99.90;;;;;;5060517;28;20489;-60
2021/01/17 01:24:12;;;;;;;46.42;16.73;;;0.90;99.90;;;;;;5060916;28;20031;-60
2021/01/17 01:26:41;;;;;;;52.65;18.20;;;0.90;99.90;;;;;;5059371;28;20029;-61
2021/01/17 01:29:07;;;;;;;49.70;17.55;;;0.90;99.90;;;;;;5061439;28;20044;-60
2021/01/17 01:31:34;;;;;;;40.47;15.85;;;1.00;99.90;;;;;;5058211;28;20068;-60
2021/01/17 01:33:59;;;;;;;48.15;16.33;;;1.00;99.90;;;;;;5062011;28;20481;-62
2021/01/17 01:36:39;;;;;;;46.22;15.90;;;1.00;99.90;;;;;;5062196;28;20124;-62
2021/01/17 01:39:06;;;;;;;52.35;16.88;;;1.00;99.90;;;;;;5061932;28;20032;-61
2021/01/17 01:41:34;;;;;;;46.85;16.00;;;1.00;99.90;;;;;;5061880;28;20031;-61
2021/01/17 01:44:01;;;;;;;50.63;17.55;;;0.90;99.90;;;;;;5058382;28;20025;-61
2021/01/17 01:46:28;;;;;;;49.13;16.15;;;1.00;99.90;;;;;;5057990;28;20037;-60
2021/01/17 01:48:55;;;;;;;50.78;15.77;;;1.00;99.90;;;;;;5058513;28;20051;-60
2021/01/17 01:51:23;;;;;;;43.25;15.20;;;1.00;99.90;;;;;;5058649;28;20029;-60
2021/01/17 01:53:51;;;;;;;44.55;16.08;;;1.00;99.90;;;;;;5060810;28;20443;-60
2021/01/17 01:56:17;;;;;;;42.53;14.13;;;1.00;99.90;;;;;;5059684;28;20035;-60
2021/01/17 01:58:43;;;;;;;47.45;16.80;;;1.00;99.90;;;;;;5060278;28;20036;-60
2021/01/17 02:01:09;;;;;;;41.05;15.70;;;1.00;99.90;;;;;;5060083;28;20028;-59
2021/01/17 02:03:36;;;;;;;46.67;15.20;;;1.00;99.90;;;;;;5058349;28;20032;-59
2021/01/17 02:06:02;;;;;;;39.22;14.40;;;1.00;99.90;;;;;;5057810;28;20033;-61
2021/01/17 02:09:09;;;;;;;51.63;15.13;;;1.00;99.90;;;;;;5061688;28;20681;-62
2021/01/17 02:12:11;;;;;;;44.60;15.15;;;1.00;99.90;;;;;;4996455;28;20053;-60
2021/01/17 02:14:51;;;;;;;40.00;15.77;;;1.10;99.90;;;;;;5060292;28;20547;-60
2021/01/17 02:17:25;;;;;;;44.42;14.45;;;1.10;99.90;;;;;;5060073;28;20033;-61
2021/01/17 02:20:24;;;;;;;40.90;15.30;;;1.10;99.90;;;;;;5058179;28;20029;-60
2021/01/17 02:22:58;;;;;;;36.40;14.05;;;1.10;99.90;;;;;;5060665;28;20062;-62
2021/01/17 02:25:25;;;;;;;43.65;15.10;;;1.10;99.90;;;;;;5057331;28;20146;-59
2021/01/17 02:27:52;;;;;;;45.83;15.32;;;1.10;99.90;;;;;;5056257;28;20033;-61
2021/01/17 02:30:19;;;;;;;43.50;15.20;;;1.10;99.90;;;;;;5060365;28;20031;-60
2021/01/17 02:33:11;;;;;;;40.47;14.75;;;1.10;99.90;;;;;;5058251;28;20029;-61
2021/01/17 02:35:39;;;;;;;44.75;14.68;;;1.10;99.90;;;;;;5060527;28;20029;-62
2021/01/17 02:38:20;;;;;;;43.20;14.95;;;1.10;99.90;;;;;;5060110;28;20029;-61
2021/01/17 02:41:01;;;;;;;41.05;15.93;;;1.10;99.90;;;;;;5060331;28;20389;-60
2021/01/17 02:43:27;;;;;;;40.10;14.32;;;1.10;99.90;;;;;;5057666;28;20044;-60
2021/01/17 02:45:52;;;;;;;59.72;17.02;;;1.10;99.90;;;;;;5056625;28;20115;-59
2021/01/17 02:48:18;;;;;;;39.38;15.93;;;1.10;99.90;;;;;;5057689;28;20123;-61
2021/01/17 02:50:43;;;;;;;44.17;15.20;;;1.10;99.90;;;;;;5059380;28;20041;-61
2021/01/17 02:53:18;;;;;;;45.00;16.85;;;1.10;99.90;;;;;;5058665;28;20051;-59
2021/01/17 02:55:45;;;;;;;40.35;15.02;;;1.10;99.90;;;;;;5059234;28;20033;-60
2021/01/17 02:58:12;;;;;;;38.35;15.00;;;1.10;99.90;;;;;;5058491;28;20111;-60
2021/01/17 03:00:40;;;;;;;50.92;17.15;;;1.10;99.90;;;;;;5058587;28;20033;-61
2021/01/17 03:03:07;;;;;;;52.55;17.50;;;1.10;99.90;;;;;;5059295;28;20381;-60
2021/01/17 03:05:34;;;;;;;49.30;16.40;;;1.10;99.90;;;;;;5056507;28;20040;-61
2021/01/17 03:08:04;;;;;;;49.53;15.43;;;1.10;99.90;;;;;;5059590;28;20492;-61
2021/01/17 03:10:30;;;;;;;46.55;16.58;;;1.10;99.90;;;;;;5057499;28;20539;-60
2021/01/17 03:12:58;;;;;;;56.83;17.92;;;1.10;99.90;;;;;;5059806;28;20040;-59
2021/01/17 03:15:25;;;;;;;44.30;14.52;;;1.10;99.90;;;;;;5056615;28;20025;-60
2021/01/17 03:17:50;;;;;;;48.30;16.67;;;1.10;99.90;;;;;;5055898;28;20116;-61
2021/01/17 03:20:16;;;;;;;52.70;16.85;;;1.20;99.90;;;;;;5057599;28;20039;-60
2021/01/17 03:22:41;;;;;;;47.80;16.42;;;1.20;99.90;;;;;;5057248;28;20052;-61
2021/01/17 03:25:07;;;;;;;48.92;17.40;;;1.20;99.90;;;;;;5058537;28;20036;-61
2021/01/17 03:27:33;;;;;;;43.20;15.15;;;1.20;99.90;;;;;;5058207;28;20730;-60
2021/01/17 03:29:58;;;;;;;46.47;15.13;;;1.20;99.90;;;;;;5059246;28;20032;-62
2021/01/17 03:32:24;;;;;;;46.80;15.40;;;1.20;99.90;;;;;;5056830;28;20066;-62
2021/01/17 03:34:49;;;;;;;43.17;14.93;;;1.20;99.90;;;;;;5056139;28;20111;-60
2021/01/17 03:37:16;;;;;;;50.20;15.85;;;1.30;99.90;;;;;;5059788;28;20171;-60
2021/01/17 03:39:42;;;;;;;50.33;15.82;;;1.30;99.90;;;;;;5057296;28;20450;-61
2021/01/17 03:42:08;;;;;;;47.75;16.40;;;1.30;99.90;;;;;;5057059;28;20112;-60
2021/01/17 03:44:34;;;;;;;47.92;15.93;;;1.30;99.90;;;;;;5058237;28;20043;-61
2021/01/17 03:47:00;;;;;;;41.63;16.08;;;1.30;99.90;;;;;;5057672;28;20543;-62
2021/01/17 03:49:25;;;;;;;50.53;16.27;;;1.30;99.90;;;;;;5055414;28;20056;-64
2021/01/17 03:51:51;;;;;;;39.00;15.43;;;1.30;99.90;;;;;;5058189;28;20048;-60
2021/01/17 03:54:16;;;;;;;45.70;15.60;;;1.30;99.90;;;;;;5057353;28;20048;-60
2021/01/17 03:56:42;;;;;;;45.65;16.05;;;1.40;99.90;;;;;;5061668;28;20047;-60
2021/01/17 03:59:07;;;;;;;47.63;15.38;;;1.30;99.90;;;;;;5060163;28;20032;-59
2021/01/17 04:01:33;;;;;;;46.72;16.40;;;1.30;99.90;;;;;;5061996;28;20059;-60
2021/01/17 04:03:58;;;;;;;44.92;15.63;;;1.30;99.90;;;;;;5063515;28;20032;-61
2021/01/17 04:06:25;;;;;;;41.90;14.15;;;1.40;99.90;;;;;;5063849;28;20032;-59
2021/01/17 04:08:51;;;;;;;47.08;15.48;;;1.30;99.90;;;;;;5060186;28;20500;-59
2021/01/17 04:11:16;;;;;;;43.85;14.10;;;1.40;99.90;;;;;;5064148;28;20060;-59
2021/01/17 04:13:42;;;;;;;48.97;13.95;;;1.40;99.90;;;;;;5060945;28;20063;-60
2021/01/17 04:16:08;;;;;;;49.05;16.42;;;1.40;99.90;;;;;;5061949;28;20127;-61
2021/01/17 04:18:34;;;;;;;46.22;15.82;;;1.40;99.90;;;;;;5061778;28;20040;-61
2021/01/17 04:21:00;;;;;;;50.03;16.20;;;1.40;99.90;;;;;;5061012;28;20029;-60
2021/01/17 04:23:25;;;;;;;50.42;15.98;;;1.40;99.90;;;;;;5059322;28;20041;-60
2021/01/17 04:25:51;;;;;;;42.45;15.07;;;1.40;99.90;;;;;;5061586;28;20031;-60
2021/01/17 04:28:17;;;;;;;46.72;15.25;;;1.40;99.90;;;;;;5060411;28;20450;-62
2021/01/17 04:30:42;;;;;;;39.88;15.52;;;1.50;99.90;;;;;;5063890;28;20082;-61
2021/01/17 04:33:08;;;;;;;48.17;15.98;;;1.50;99.90;;;;;;5059582;28;20167;-60
2021/01/17 04:35:33;;;;;;;43.90;15.48;;;1.50;99.90;;;;;;5065664;28;20566;-61
2021/01/17 04:37:59;;;;;;;48.47;15.30;;;1.50;99.90;;;;;;5063111;28;20064;-59
2021/01/17 04:40:29;;;;;;;40.90;15.00;;;1.50;99.90;;;;;;5063137;28;20041;-60
2021/01/17 04:43:05;;;;;;;40.92;14.77;;;1.50;99.90;;;;;;5061523;28;20482;-60
2021/01/17 04:45:32;;;;;;;37.10;14.52;;;1.50;99.90;;;;;;5063209;28;20148;-59
2021/01/17 04:47:59;;;;;;;38.03;14.63;;;1.50;99.90;;;;;;5062758;28;20040;-59
2021/01/17 04:50:30;;;;;;;42.30;16.42;;;1.50;99.90;;;;;;5062693;28;20039;-60
2021/01/17 04:52:59;;;;;;;38.67;15.27;;;1.50;99.90;;;;;;5059254;28;20043;-63
2021/01/17 04:55:25;;;;;;;42.33;16.48;;;1.50;99.90;;;;;;5060343;28;20409;-59
2021/01/17 04:58:02;;;;;;;42.20;15.55;;;1.60;99.90;;;;;;5063102;28;20110;-59
2021/01/17 05:00:32;;;;;;;45.72;16.77;;;1.50;99.90;;;;;;5058767;28;20036;-61
2021/01/17 05:03:25;;;;;;;47.03;15.20;;;1.60;99.90;;;;;;5062961;28;20039;-59
2021/01/17 05:06:26;;;;;;;48.72;15.52;;;1.60;99.90;;;;;;5056687;28;20037;-61
2021/01/17 05:08:59;;;;;;;;;;;1.60;99.90;;;;;;5055702;28;20029;-61
2021/01/17 05:11:41;;;;;;;45.45;13.95;;;1.60;99.90;;;;;;5064590;28;19940;-61
2021/01/17 05:14:20;;;;;;;47.25;16.35;;;1.60;99.90;;;;;;5066744;28;20116;-60
2021/01/17 05:16:47;;;;;;;51.90;16.98;;;1.60;99.90;;;;;;5058007;28;20044;-60
2021/01/17 05:19:20;;;;;;;55.35;15.20;;;1.60;99.90;;;;;;5055287;28;20047;-62
2021/01/17 05:21:54;;;;;;;51.78;16.73;;;1.70;99.90;;;;;;5058570;28;20175;-60
2021/01/17 05:24:20;;;;;;;50.00;14.75;;;1.70;99.90;;;;;;5058043;28;20037;-60
2021/01/17 05:26:57;;;;;;;44.58;15.13;;;1.70;99.90;;;;;;5057980;28;20051;-61
2021/01/17 05:29:28;;;;;;;54.50;16.52;;;1.70;99.90;;;;;;5062041;28;20045;-60
2021/01/17 05:31:58;;;;;;;53.65;16.67;;;1.70;99.90;;;;;;5058111;28;20538;-61
2021/01/17 05:34:25;;;;;;;34.45;14.77;;;1.70;99.90;;;;;;5060003;28;20091;-60
2021/01/17 05:37:11;;;;;;;46.22;16.45;;;1.70;99.90;;;;;;5058243;28;20025;-60
2021/01/17 05:39:57;;;;;;;62.55;17.15;;;1.70;99.90;;;;;;5059509;28;20039;-59
2021/01/17 05:42:24;;;;;;;45.75;14.35;;;1.70;99.90;;;;;;5059002;28;20511;-60
2021/01/17 05:44:51;;;;;;;40.42;15.32;;;1.80;99.90;;;;;;5066173;28;20082;-61
2021/01/17 05:47:21;;;;;;;48.58;16.73;;;1.80;99.90;;;;;;5062704;28;20056;-60
2021/01/17 05:49:51;;;;;;;52.78;16.52;;;1.80;99.90;;;;;;5053344;28;20039;-59
2021/01/17 05:52:18;;;;;;;40.42;14.70;;;1.80;99.90;;;;;;5058149;28;20040;-60
2021/01/17 05:54:48;;;;;;;49.47;15.57;;;1.80;99.90;;;;;;5066174;28;20594;-59
2021/01/17 05:57:23;;;;;;;38.45;14.48;;;1.90;99.90;;;;;;5058283;28;20024;-59
2021/01/17 05:59:49;;;;;;;48.13;15.88;;;1.90;99.90;;;;;;5062333;28;20056;-60
2021/01/17 06:02:24;;;;;;;43.05;14.40;;;1.90;99.90;;;;;;5062350;28;20033;-60
2021/01/17 06:04:55;;;;;;;37.40;14.23;;;2.00;99.90;;;;;;5060028;28;20039;-59
2021/01/17 06:07:23;;;;;;;36.33;14.27;;;1.90;99.90;;;;;;5059423;28;20097;-59
2021/01/17 06:09:56;;;;;;;38.08;14.32;;;2.00;99.90;;;;;;5058131;28;20041;-59
2021/01/17 06:12:28;;;;;;;44.67;13.70;;;2.00;99.90;;;;;;5063181;28;20056;-60
2021/01/17 06:15:08;;;;;;;54.35;16.60;;;1.90;99.90;;;;;;5061801;28;20116;-60
2021/01/17 06:17:35;;;;;;;39.28;14.60;;;2.00;99.90;;;;;;5057916;28;20032;-62
2021/01/17 06:20:08;;;;;;;40.25;13.98;;;2.00;99.90;;;;;;5060322;28;20044;-63
2021/01/17 06:22:35;;;;;;;38.25;13.73;;;2.10;99.90;;;;;;5057107;28;20411;-60
2021/01/17 06:25:03;;;;;;;41.53;13.43;;;2.10;99.90;;;;;;5060002;28;20056;-60
2021/01/17 06:27:29;;;;;;;33.13;12.95;;;2.10;99.90;;;;;;5059398;28;20098;-61
2021/01/17 06:29:55;;;;;;;36.78;13.50;;;2.10;99.90;;;;;;5058915;28;20493;-60
2021/01/17 06:32:28;;;;;;;37.03;13.25;;;2.10;99.90;;;;;;5061238;28;20525;-61
2021/01/17 06:34:56;;;;;;;38.13;13.80;;;2.10;99.90;;;;;;5059518;28;20507;-60
2021/01/17 06:37:26;;;;;;;35.80;13.02;;;2.10;99.90;;;;;;5058933;28;20106;-62
2021/01/17 06:39:54;;;;;;;29.98;11.90;;;2.10;99.90;;;;;;5059433;28;20048;-60
2021/01/17 06:42:21;;;;;;;39.22;12.75;;;2.20;99.90;;;;;;5058528;28;20115;-60
2021/01/17 06:44:48;;;;;;;39.38;12.95;;;2.20;99.90;;;;;;5058466;28;20143;-60
2021/01/17 06:47:21;;;;;;;29.58;11.27;;;2.20;99.90;;;;;;5061463;28;20029;-60
2021/01/17 06:49:48;;;;;;;34.90;11.73;;;2.20;99.90;;;;;;5057781;28;20036;-59
2021/01/17 06:52:16;;;;;;;28.48;11.80;;;2.30;99.90;;;;;;5056573;28;20489;-61
2021/01/17 06:54:44;;;;;;;32.03;12.68;;;2.30;99.90;;;;;;5061071;28;20032;-60
2021/01/17 06:57:10;;;;;;;25.13;10.93;;;2.30;99.90;;;;;;5056957;28;20036;-60
2021/01/17 06:59:38;;;;;;;30.20;10.70;;;2.40;99.90;;;;;;5057360;28;20063;-59
2021/01/17 07:02:15;;;;;;;25.77;9.20;;;2.30;99.90;;;;;;5058362;28;20477;-60
2021/01/17 07:04:53;;;;;;;28.77;9.57;;;2.40;99.90;;;;;;5057195;28;20029;-60
2021/01/17 07:07:40;;;;;;;25.17;10.20;;;2.40;99.90;;;;;;5057904;28;20120;-60
2021/01/17 07:10:07;;;;;;;30.25;9.35;;;2.40;99.90;;;;;;5057025;28;20029;-60
2021/01/17 07:12:51;;;;;;;24.42;10.40;;;2.40;99.90;;;;;;5059896;28;20044;-60
2021/01/17 07:15:27;;;;;;;22.42;8.35;;;2.40;99.90;;;;;;5059368;28;20041;-60
2021/01/17 07:18:00;;;;;;;24.90;9.88;;;2.40;99.90;;;;;;5057403;28;20489;-59
2021/01/17 07:20:28;;;;;;;22.23;8.80;;;2.40;99.90;;;;;;5058416;28;20045;-61
2021/01/17 07:22:57;;;;;;;25.38;9.02;;;2.40;99.90;;;;;;5058738;28;20043;-61
2021/01/17 07:25:24;;;;;;;24.00;8.30;;;2.50;99.90;;;;;;5058146;28;20037;-59
2021/01/17 07:28:05;;;;;;;29.27;8.85;;;2.50;99.90;;;;;;5058095;28;20093;-61
2021/01/17 07:30:40;;;;;;;23.65;8.57;;;2.60;99.90;;;;;;5062471;28;20108;-60
2021/01/17 07:33:08;;;;;;;25.55;8.32;;;2.60;99.90;;;;;;5063721;28;20086;-59
2021/01/17 07:35:46;;;;;;;29.80;8.45;;;2.60;99.90;;;;;;5061209;28;20033;-60
2021/01/17 07:38:15;;;;;;;23.23;7.47;;;2.60;99.90;;;;;;5056573;28;20037;-59
2021/01/17 07:40:54;;;;;;;23.45;6.93;;;2.60;99.90;;;;;;5060414;28;20100;-61
2021/01/17 07:43:28;;;;;;;35.40;7.33;;;2.60;99.90;;;;;;5065276;28;20040;-60
2021/01/17 07:45:59;;;;;;;22.05;6.00;;;2.60;99.90;;;;;;5068026;28;20401;-60
2021/01/17 07:48:26;;;;;;;28.05;7.03;;;2.60;99.90;;;;;;5066934;28;20036;-62
2021/01/17 07:50:54;;;;;;;19.73;6.50;;;2.60;99.90;;;;;;5067976;28;20032;-60
2021/01/17 07:53:37;;;;;;;23.55;6.03;;;2.60;99.90;;;;;;5067385;28;20036;-62
2021/01/17 07:56:27;;;;;;;19.30;5.72;;;2.60;99.90;;;;;;5066545;28;21287;-60
2021/01/17 07:58:57;;;;;;;28.02;6.43;;;2.60;99.90;;;;;;5058064;28;20632;-61
2021/01/17 08:01:32;;;;;;;35.25;6.57;;;2.60;99.90;;;;;;5063673;28;20037;-59
2021/01/17 08:04:04;;;;;;;18.48;6.15;;;2.60;99.90;;;;;;5063331;28;20033;-60
2021/01/17 08:06:36;;;;;;;20.73;5.63;;;2.60;99.90;;;;;;5065405;28;20041;-60
2021/01/17 08:09:18;;;;;;;21.27;5.50;;;2.70;99.90;;;;;;5067503;28;20040;-61
2021/01/17 08:11:51;;;;;;;24.85;5.43;;;2.70;99.90;;;;;;5060224;28;20025;-60
2021/01/17 08:14:20;;;;;;;22.70;5.97;;;2.70;99.90;;;;;;5063243;28;20040;-60
2021/01/17 08:17:20;;;;;;;25.38;5.63;;;2.80;99.90;;;;;;5063205;28;20036;-61
2021/01/17 08:19:52;;;;;;;20.10;3.93;;;2.90;99.90;;;;;;5061019;28;20567;-61
2021/01/17 08:22:18;;;;;;;42.25;5.72;;;2.90;99.90;;;;;;5060675;28;20276;-60
2021/01/17 08:24:44;;;;;;;25.67;4.95;;;3.00;99.90;;;;;;5067417;28;20036;-60
2021/01/17 08:27:10;;;;;;;19.58;4.25;;;3.00;99.90;;;;;;5061623;28;20032;-60
2021/01/17 08:30:15;;;;;;;21.65;3.22;;;3.10;99.90;;;;;;5059836;28;20123;-59
2021/01/17 08:32:45;;;;;;;22.27;3.88;;;3.10;99.90;;;;;;5000919;28;20069;-60
2021/01/17 08:35:10;;;;;;;12.88;2.85;;;3.00;99.90;;;;;;5005324;28;20450;-60
2021/01/17 08:37:37;;;;;;;30.05;3.55;;;3.10;99.90;;;;;;5023782;28;20048;-60
2021/01/17 08:40:04;;;;;;;14.45;3.38;;;3.10;99.90;;;;;;5058909;28;20029;-60
2021/01/17 08:42:32;;;;;;;20.88;2.78;;;3.10;99.90;;;;;;5066457;28;20033;-60
2021/01/17 08:44:59;;;;;;;28.05;4.70;;;3.20;99.90;;;;;;5068662;28;20446;-60
2021/01/17 08:47:25;;;;;;;22.20;2.58;;;3.20;99.90;;;;;;5064969;28;20076;-62
2021/01/17 08:49:52;;;;;;;30.70;3.20;;;3.20;99.90;;;;;;5064438;28;20478;-59
2021/01/17 08:52:25;;;;;;;18.48;3.28;;;3.20;99.90;;;;;;5063145;28;20072;-62
2021/01/17 08:54:51;;;;;;;24.52;2.83;;;3.30;99.90;;;;;;5065520;28;20112;-61
2021/01/17 08:57:37;;;;;;;15.88;2.47;;;3.30;99.90;;;;;;5064154;28;20120;-61
2021/01/17 09:00:08;;;;;;;18.27;3.42;;;3.30;99.90;;;;;;5064103;28;20033;-60
2021/01/17 09:02:33;;;;;;;23.17;4.47;;;3.30;99.90;;;;;;5063303;28;20050;-60
2021/01/17 09:04:59;;;;;;;19.92;2.83;;;3.40;99.90;;;;;;5065160;28;20141;-62
2021/01/17 09:07:38;;;;;;;20.02;2.60;;;3.40;99.90;;;;;;5067955;28;20404;-61
2021/01/17 09:10:08;;;;;;;24.08;3.20;;;3.50;99.90;;;;;;5063681;28;20508;-59
2021/01/17 09:12:35;;;;;;;20.60;3.13;;;3.50;99.90;;;;;;5061350;28;20397;-62
2021/01/17 09:15:15;;;;;;;18.00;3.15;;;3.60;99.90;;;;;;5060002;28;20032;-60
2021/01/17 09:17:43;;;;;;;18.03;3.90;;;3.60;99.90;;;;;;5060589;28;20037;-60
2021/01/17 09:20:18;;;;;;;18.15;2.63;;;3.60;99.90;;;;;;5063229;28;20036;-60
2021/01/17 09:22:48;;;;;;;19.45;3.40;;;3.60;99.90;;;;;;5065341;28;20044;-61
2021/01/17 09:25:16;;;;;;;15.57;2.50;;;3.60;99.90;;;;;;5059952;28;20060;-62
2021/01/17 09:27:41;;;;;;;16.60;2.00;;;3.70;99.90;;;;;;5064055;28;20056;-61
2021/01/17 09:30:08;;;;;;;18.65;2.38;;;3.80;99.90;;;;;;5065328;28;20411;-60
2021/01/17 09:32:35;;;;;;;22.02;2.97;;;3.90;99.90;;;;;;5061107;28;20514;-60
2021/01/17 09:35:05;;;;;;;15.90;2.50;;;3.90;99.90;;;;;;5068777;28;20028;-61
2021/01/17 09:37:34;;;;;;;21.92;3.80;;;3.90;99.90;;;;;;5064278;28;20048;-59
2021/01/17 09:40:00;;;;;;;21.10;3.15;;;4.00;99.90;;;;;;5075015;28;20029;-61
2021/01/17 09:42:26;;;;;;;21.90;3.15;;;4.10;99.90;;;;;;5065417;28;20071;-59
2021/01/17 09:44:54;;;;;;;13.45;2.92;;;4.20;99.90;;;;;;5057214;28;20130;-60
2021/01/17 09:47:21;;;;;;;14.07;1.95;;;4.30;99.90;;;;;;5057396;28;20033;-61
2021/01/17 09:49:48;;;;;;;18.35;2.00;;;4.40;99.90;;;;;;5057557;28;20120;-60
2021/01/17 09:52:14;;;;;;;14.52;2.78;;;4.50;99.90;;;;;;5059899;28;20117;-60
2021/01/17 09:54:40;;;;;;;13.05;1.92;;;4.50;99.90;;;;;;5057326;28;20035;-60
2021/01/17 09:57:25;;;;;;;13.93;1.85;;;4.60;99.90;;;;;;5053858;28;20029;-60
2021/01/17 09:59:53;;;;;;;17.40;1.88;;;4.50;99.90;;;;;;5064834;28;20028;-59
2021/01/17 10:02:24;;;;;;;23.38;2.85;;;4.60;99.90;;;;;;5061233;28;20078;-59
2021/01/17 10:04:50;;;;;;;36.15;3.22;;;4.60;99.90;;;;;;5058491;28;20489;-61
2021/01/17 10:07:17;;;;;;;13.75;2.13;;;4.60;99.90;;;;;;5061285;28;20040;-59
2021/01/17 10:09:44;;;;;;;11.80;2.90;;;4.60;99.90;;;;;;5055903;28;20029;-60
2021/01/17 10:12:11;;;;;;;20.63;2.45;;;4.60;99.90;;;;;;5060566;28;20056;-61
2021/01/17 10:14:37;;;;;;;10.38;1.88;;;4.60;99.90;;;;;;5056640;28;20047;-60
2021/01/17 10:17:05;;;;;;;11.02;2.30;;;4.60;99.90;;;;;;5062100;28;20401;-60
2021/01/17 10:19:32;;;;;;;19.55;2.40;;;4.70;99.90;;;;;;5064180;28;20025;-59
2021/01/17 10:21:59;;;;;;;17.33;2.67;;;4.80;99.90;;;;;;5058391;28;20044;-59
2021/01/17 10:24:28;;;;;;;15.23;2.92;;;4.90;99.90;;;;;;5059986;28;20118;-60
2021/01/17 10:26:57;;;;;;;19.73;3.45;;;5.10;99.90;;;;;;5056362;28;20024;-61
2021/01/17 10:29:24;;;;;;;18.65;3.40;;;5.30;99.90;;;;;;5060016;28;20024;-58
2021/01/17 10:31:53;;;;;;;21.05;2.60;;;5.40;99.90;;;;;;5057346;28;20044;-61
2021/01/17 10:34:28;;;;;;;22.45;2.78;;;5.50;99.90;;;;;;5054856;28;20152;-61
2021/01/17 10:37:00;;;;;;;28.52;3.33;;;5.70;99.90;;;;;;5058292;28;20028;-59
2021/01/17 10:39:27;;;;;;;19.65;3.40;;;5.90;99.90;;;;;;5057515;28;20032;-61
2021/01/17 10:42:01;;;;;;;12.10;2.95;;;6.10;99.90;;;;;;5055534;28;20039;-61
2021/01/17 10:44:28;;;;;;;25.10;2.40;;;6.30;99.90;;;;;;5055461;28;20040;-60
2021/01/17 10:47:10;;;;;;;23.35;2.58;;;6.40;99.90;;;;;;5059840;28;20051;-59
2021/01/17 10:49:38;;;;;;;18.52;2.38;;;6.40;99.90;;;;;;5059323;28;20040;-59
2021/01/17 10:52:22;;;;;;;11.43;2.08;;;6.50;99.90;;;;;;5055270;28;20110;-60
2021/01/17 10:54:48;;;;;;;12.10;2.00;;;6.50;99.90;;;;;;5058384;28;20504;-60
2021/01/17 10:57:16;;;;;;;16.65;2.60;;;6.50;99.90;;;;;;5060674;28;20397;-60
2021/01/17 10:59:42;;;;;;;9.88;2.35;;;6.50;99.90;;;;;;5063039;28;20142;-62
2021/01/17 11:02:07;;;;;;;15.45;1.98;;;6.50;99.90;;;;;;5062749;28;20060;-62
2021/01/17 11:04:42;;;;;;;18.85;2.78;;;6.50;99.90;;;;;;5058420;28;20052;-60
2021/01/17 11:07:08;;;;;;;15.07;1.67;;;6.50;99.90;;;;;;5066042;28;20742;-60
2021/01/17 11:09:34;;;;;;;13.30;2.40;;;6.40;99.90;;;;;;5067059;28;20028;-59
2021/01/17 11:12:00;;;;;;;12.60;1.58;;;6.40;99.90;;;;;;5061327;28;20032;-59
2021/01/17 11:14:30;;;;;;;10.00;1.95;;;6.40;99.90;;;;;;5061255;28;20405;-60
2021/01/17 11:16:56;;;;;;;28.10;1.77;;;6.40;99.90;;;;;;5055795;28;20063;-60
2021/01/17 11:19:40;;;;;;;14.02;2.05;;;6.30;99.90;;;;;;5056908;28;20033;-61
2021/01/17 11:22:07;;;;;;;14.07;2.38;;;6.30;99.90;;;;;;5057325;28;20071;-60
2021/01/17 11:24:40;;;;;;;11.93;1.40;;;6.30;99.90;;;;;;5059291;28;20028;-59
2021/01/17 11:27:12;;;;;;;13.65;1.63;;;6.10;99.90;;;;;;5057500;28;20025;-62
2021/01/17 11:29:39;;;;;;;18.25;2.03;;;6.10;99.90;;;;;;5058206;28;20044;-59
2021/01/17 11:32:05;;;;;;;12.55;1.23;;;6.20;99.90;;;;;;5056913;28;20457;-60
2021/01/17 11:34:39;;;;;;;13.15;1.83;;;6.50;99.90;;;;;;5058755;28;20484;-61
2021/01/17 11:37:05;;;;;;;17.75;2.00;;;6.80;99.90;;;;;;5056069;28;20133;-60
2021/01/17 11:39:32;;;;;;;10.93;1.45;;;7.00;99.90;;;;;;5065035;28;20078;-60
2021/01/17 11:41:58;;;;;;;12.55;1.58;;;7.10;99.90;;;;;;5067087;28;20052;-60
2021/01/17 11:44:26;;;;;;;12.85;2.53;;;7.00;99.90;;;;;;5064893;28;20024;-59
2021/01/17 11:46:52;;;;;;;11.45;2.45;;;6.90;99.90;;;;;;5063078;28;20032;-62
2021/01/17 11:49:25;;;;;;;13.70;2.75;;;6.90;99.90;;;;;;5067040;28;20093;-60
2021/01/17 11:51:52;;;;;;;13.25;1.25;;;6.80;99.90;;;;;;5063566;28;20067;-61
2021/01/17 11:54:22;;;;;;;8.65;1.50;;;6.90;99.90;;;;;;5066858;28;21346;-59
2021/01/17 11:56:49;;;;;;;12.68;1.77;;;6.90;99.90;;;;;;5067116;28;20498;-60
2021/01/17 11:59:27;;;;;;;15.68;3.55;;;6.80;99.90;;;;;;5066823;28;20033;-60
2021/01/17 12:01:53;;;;;;;19.25;1.55;;;6.80;99.90;;;;;;5065789;28;20408;-61
2021/01/17 12:04:24;;;;;;;16.48;2.20;;;6.80;99.90;;;;;;5066748;28;20032;-60
2021/01/17 12:07:06;;;;;;;10.95;1.83;;;6.80;99.90;;;;;;5065402;28;20032;-61
2021/01/17 12:09:33;;;;;;;11.70;1.60;;;6.90;99.90;;;;;;5067255;28;20033;-60
2021/01/17 12:12:09;;;;;;;21.10;1.77;;;6.90;99.90;;;;;;5066908;28;20504;-60
2021/01/17 12:14:35;;;;;;;17.60;2.30;;;7.00;99.90;;;;;;5046212;28;546268;-61
2021/01/17 12:17:00;;;;;;;10.75;1.23;;;7.10;99.90;;;;;;5091262;22;20041;-65
2021/01/17 12:19:27;;;;;;;13.63;1.63;;;7.20;99.90;;;;;;5069302;28;20542;-66
2021/01/17 12:21:59;;;;;;;10.75;1.85;;;7.30;99.90;;;;;;5072880;28;20033;-63
2021/01/17 12:24:25;;;;;;;13.05;1.52;;;7.30;99.90;;;;;;5070120;28;20032;-64
2021/01/17 12:26:52;;;;;;;12.23;1.55;;;7.40;99.90;;;;;;5072591;28;20062;-65
2021/01/17 12:29:18;;;;;;;7.70;1.90;;;7.40;99.90;;;;;;5071775;28;20036;-65
2021/01/17 12:31:45;;;;;;;16.10;3.72;;;7.50;99.90;;;;;;5072088;28;20035;-65
2021/01/17 12:34:11;;;;;;;14.65;2.25;;;7.40;99.90;;;;;;5071936;28;20037;-65
2021/01/17 12:36:38;;;;;;;9.80;2.08;;;7.50;99.90;;;;;;5070104;28;20078;-65
2021/01/17 12:39:06;;;;;;;14.25;3.13;;;7.50;99.90;;;;;;5068321;28;20058;-64
2021/01/17 12:41:34;;;;;;;26.05;3.42;;;7.50;99.90;;;;;;5065725;28;20061;-66
2021/01/17 12:44:01;;;;;;;15.30;2.00;;;7.50;99.90;;;;;;5060391;28;20501;-65
2021/01/17 12:46:27;;;;;;;20.60;2.22;;;7.50;99.90;;;;;;5071550;28;20040;-65
2021/01/17 12:48:53;;;;;;;10.15;1.90;;;7.60;99.90;;;;;;5059189;28;20045;-65
2021/01/17 12:51:19;;;;;;;13.60;1.48;;;7.60;99.90;;;;;;5064067;28;20032;-68
2021/01/17 12:53:46;;;;;;;12.75;2.25;;;7.70;99.90;;;;;;5060532;28;20132;-65